Time;durP1;ratioP1;P1;durP2;ratioP2;P2;SDS_P1;SDS_P2;PMS_P1;PMS_P2;Temp;Humidity;BMP_temperature;BMP_pressure;BME280_temperature;BME280_humidity;BME280_pressure;Samples;Min_cycle;Max_cycle;Signal;HPM_P1;HPM_P2
2021/12/09 00:02:03;;;;;;;14.77;5.65;;;3.70;99.90;;;;;;4934609;29;20051;-79
2021/12/09 00:04:31;;;;;;;13.15;6.00;;;3.80;99.90;;;;;;4904211;29;20043;-79
2021/12/09 00:07:01;;;;;;;14.75;5.70;;;3.70;99.90;;;;;;4919247;29;20062;-79
2021/12/09 00:09:27;;;;;;;13.90;5.60;;;3.70;99.90;;;;;;4919883;29;20050;-78
2021/12/09 00:11:53;;;;;;;15.23;5.38;;;3.80;99.90;;;;;;4918125;29;20474;-78
2021/12/09 00:14:25;;;;;;;16.73;5.78;;;4.70;99.90;;;;;;4902112;29;20509;-79
2021/12/09 00:16:54;;;;;;;12.77;5.53;;;3.80;99.90;;;;;;4954294;29;20048;-79
2021/12/09 00:19:20;;;;;;;13.68;6.22;;;4.30;99.90;;;;;;4918547;29;20107;-78
2021/12/09 00:21:46;;;;;;;14.63;6.20;;;4.10;99.90;;;;;;4918302;29;20044;-78
2021/12/09 00:24:12;;;;;;;17.42;5.88;;;3.70;99.90;;;;;;4950191;29;20046;-79
2021/12/09 00:26:43;;;;;;;12.32;5.75;;;3.90;99.90;;;;;;4953077;29;20043;-79
2021/12/09 00:29:10;;;;;;;13.07;6.07;;;3.70;99.90;;;;;;4918240;29;20050;-79
2021/12/09 00:31:37;;;;;;;13.65;5.60;;;3.70;99.90;;;;;;4919083;29;20044;-78
2021/12/09 00:34:03;;;;;;;12.80;6.10;;;3.70;99.90;;;;;;4934320;29;20522;-79
2021/12/09 00:36:44;;;;;;;11.88;6.30;;;3.70;99.90;;;;;;4967588;28;20036;-78
2021/12/09 00:39:12;;;;;;;14.07;6.00;;;3.70;99.90;;;;;;4920103;29;20054;-78
2021/12/09 00:41:38;;;;;;;12.85;6.13;;;3.60;99.90;;;;;;4952800;29;20391;-79
2021/12/09 00:44:05;;;;;;;13.65;6.30;;;3.60;99.90;;;;;;4933611;29;20048;-78
2021/12/09 00:46:31;;;;;;;14.00;6.35;;;3.90;99.90;;;;;;4934277;29;20050;-79
2021/12/09 00:48:57;;;;;;;12.30;6.03;;;4.00;99.90;;;;;;4933325;29;20180;-78
2021/12/09 00:51:22;;;;;;;11.88;6.15;;;3.60;99.90;;;;;;4951644;28;20035;-74
2021/12/09 00:53:48;;;;;;;12.93;6.80;;;3.60;99.90;;;;;;4953746;28;20043;-74
2021/12/09 00:56:15;;;;;;;15.50;6.85;;;3.60;99.90;;;;;;4933544;29;20043;-74
2021/12/09 00:58:42;;;;;;;14.73;7.07;;;4.40;99.90;;;;;;4917838;29;20415;-74
2021/12/09 01:01:08;;;;;;;14.18;7.25;;;3.60;99.90;;;;;;4965694;28;20039;-74
2021/12/09 01:03:35;;;;;;;13.10;6.50;;;3.60;99.90;;;;;;4950662;28;20046;-74
2021/12/09 01:06:02;;;;;;;10.52;6.75;;;4.10;99.90;;;;;;4931225;28;20047;-74
2021/12/09 01:08:28;;;;;;;14.43;7.30;;;3.60;99.90;;;;;;4954336;29;20403;-74
2021/12/09 01:10:54;;;;;;;13.52;5.97;;;3.60;99.90;;;;;;4953713;28;20036;-74
2021/12/09 01:13:20;;;;;;;14.35;6.88;;;3.60;99.90;;;;;;4918291;29;20122;-74
2021/12/09 01:15:49;;;;;;;14.25;7.20;;;4.30;99.90;;;;;;4933355;29;20039;-75
2021/12/09 01:18:15;;;;;;;13.43;6.60;;;3.60;99.90;;;;;;4933676;29;20056;-74
2021/12/09 01:20:41;;;;;;;14.52;7.75;;;3.60;99.90;;;;;;4916735;29;20044;-74
2021/12/09 01:23:09;;;;;;;14.23;7.05;;;3.70;99.90;;;;;;4917605;29;20044;-74
2021/12/09 01:25:38;;;;;;;12.40;7.60;;;3.60;99.90;;;;;;4939411;29;20046;-74
2021/12/09 01:28:16;;;;;;;13.30;7.00;;;3.50;99.90;;;;;;4921737;29;20043;-74
2021/12/09 01:30:42;;;;;;;12.80;7.63;;;3.50;99.90;;;;;;4953394;29;20051;-75
2021/12/09 01:33:09;;;;;;;13.70;8.35;;;4.40;99.90;;;;;;4937009;29;20460;-75
2021/12/09 01:35:35;;;;;;;17.65;7.50;;;3.50;99.90;;;;;;4941756;29;20102;-74
2021/12/09 01:38:10;;;;;;;14.52;7.22;;;3.50;99.90;;;;;;4957401;29;20043;-74
2021/12/09 01:40:38;;;;;;;19.50;7.80;;;3.50;99.90;;;;;;4939986;29;20082;-74
2021/12/09 01:43:04;;;;;;;15.15;7.45;;;3.50;99.90;;;;;;4919287;29;20451;-74
2021/12/09 01:45:30;;;;;;;17.80;7.47;;;3.50;99.90;;;;;;4972148;28;20047;-74
2021/12/09 01:47:56;;;;;;;15.30;8.00;;;3.40;99.90;;;;;;4937340;29;20051;-74
2021/12/09 01:50:22;;;;;;;16.35;7.50;;;3.50;99.90;;;;;;4920444;29;20086;-75
2021/12/09 01:52:49;;;;;;;15.75;7.82;;;3.50;99.90;;;;;;4940027;29;20051;-75
2021/12/09 01:55:16;;;;;;;16.17;7.78;;;3.40;99.90;;;;;;4937151;29;20052;-75
2021/12/09 01:57:45;;;;;;;13.82;7.90;;;3.40;99.90;;;;;;4920835;29;20047;-75
2021/12/09 02:00:14;;;;;;;15.80;7.57;;;3.40;99.90;;;;;;4924233;28;20039;-76
2021/12/09 02:02:43;;;;;;;13.75;8.05;;;3.40;99.90;;;;;;4972165;28;20078;-76
2021/12/09 02:05:11;;;;;;;13.35;7.65;;;3.40;99.90;;;;;;4920270;29;20081;-76
2021/12/09 02:07:38;;;;;;;13.88;7.63;;;3.40;99.90;;;;;;4957986;29;20047;-76
2021/12/09 02:10:08;;;;;;;16.08;7.88;;;3.40;99.90;;;;;;4936007;29;20043;-76
2021/12/09 02:12:34;;;;;;;16.23;8.63;;;3.30;99.90;;;;;;4927208;29;20047;-75
2021/12/09 02:15:01;;;;;;;17.15;8.52;;;3.30;99.90;;;;;;4926146;29;20061;-75
2021/12/09 02:17:31;;;;;;;17.15;7.90;;;3.30;99.90;;;;;;4943582;29;20047;-75
2021/12/09 02:20:00;;;;;;;13.07;7.65;;;3.30;99.90;;;;;;4940695;29;20042;-76
2021/12/09 02:22:28;;;;;;;16.08;8.02;;;3.20;99.90;;;;;;4923146;29;20051;-75
2021/12/09 02:24:55;;;;;;;14.38;7.32;;;3.20;99.90;;;;;;4920598;29;20385;-76
2021/12/09 02:27:22;;;;;;;15.15;7.75;;;3.80;99.90;;;;;;4937032;29;20050;-75
2021/12/09 02:29:49;;;;;;;14.68;7.57;;;3.30;99.90;;;;;;4907736;29;20050;-75
2021/12/09 02:32:15;;;;;;;13.65;7.95;;;4.10;99.90;;;;;;4936094;29;20078;-75
2021/12/09 02:34:41;;;;;;;13.40;8.65;;;3.20;99.90;;;;;;4935646;29;20052;-76
2021/12/09 02:37:10;;;;;;;13.52;7.97;;;3.20;99.90;;;;;;4967774;28;20054;-76
2021/12/09 02:39:35;;;;;;;17.23;7.88;;;3.10;99.90;;;;;;4955058;28;20051;-75
2021/12/09 02:42:02;;;;;;;19.05;8.25;;;3.10;99.90;;;;;;4919220;29;20044;-75
2021/12/09 02:44:27;;;;;;;15.98;8.63;;;3.20;99.90;;;;;;4954434;28;20089;-75
2021/12/09 02:46:55;;;;;;;20.35;9.48;;;3.10;99.90;;;;;;4948608;29;20043;-75
2021/12/09 02:49:26;;;;;;;16.83;8.50;;;3.10;99.90;;;;;;4938815;29;20190;-74
2021/12/09 02:51:53;;;;;;;16.73;8.70;;;3.60;99.90;;;;;;4935817;29;20126;-74
2021/12/09 02:54:21;;;;;;;20.25;8.02;;;3.10;99.90;;;;;;4935921;29;20396;-75
2021/12/09 02:56:49;;;;;;;15.32;8.55;;;3.20;99.90;;;;;;4936101;29;20388;-74
2021/12/09 02:59:15;;;;;;;19.60;8.98;;;3.00;99.90;;;;;;4949355;29;20043;-74
2021/12/09 03:01:52;;;;;;;19.60;8.25;;;2.30;99.90;;;;;;4941963;28;20118;-74
2021/12/09 03:04:18;;;;;;;16.05;8.60;;;3.00;99.90;;;;;;4938623;29;20050;-74
2021/12/09 03:06:45;;;;;;;16.80;8.40;;;3.00;99.90;;;;;;4955795;28;20114;-75
2021/12/09 03:09:14;;;;;;;16.35;8.10;;;3.00;99.90;;;;;;4956298;29;20043;-75
2021/12/09 03:11:41;;;;;;;17.00;9.15;;;3.00;99.90;;;;;;4935892;29;20405;-74
2021/12/09 03:14:08;;;;;;;16.90;8.32;;;3.00;99.90;;;;;;4951409;29;20040;-75
2021/12/09 03:16:34;;;;;;;13.40;8.15;;;3.00;99.90;;;;;;4952211;28;20480;-74
2021/12/09 03:19:05;;;;;;;15.45;8.80;;;3.20;99.90;;;;;;4915601;29;20051;-75
2021/12/09 03:21:36;;;;;;;19.10;8.55;;;2.90;99.90;;;;;;4934267;29;20079;-74
2021/12/09 03:24:04;;;;;;;17.60;8.90;;;3.00;99.90;;;;;;4916479;29;20107;-74
2021/12/09 03:26:33;;;;;;;15.07;8.77;;;2.90;99.90;;;;;;4918159;29;20115;-74
2021/12/09 03:29:02;;;;;;;18.75;8.30;;;3.70;99.90;;;;;;4919721;29;20105;-75
2021/12/09 03:31:29;;;;;;;20.15;8.77;;;2.90;99.90;;;;;;4949324;28;20521;-74
2021/12/09 03:33:55;;;;;;;18.63;8.60;;;2.90;99.90;;;;;;4933344;29;20055;-74
2021/12/09 03:36:21;;;;;;;15.85;8.98;;;2.90;99.90;;;;;;4952299;29;20050;-74
2021/12/09 03:38:47;;;;;;;19.00;9.85;;;2.90;99.90;;;;;;4935369;29;20392;-74
2021/12/09 03:41:13;;;;;;;16.92;9.05;;;2.80;99.90;;;;;;4951707;29;20039;-74
2021/12/09 03:43:38;;;;;;;19.60;8.38;;;2.80;99.90;;;;;;4921902;29;20459;-75
2021/12/09 03:46:05;;;;;;;18.52;9.10;;;2.80;99.90;;;;;;4918879;29;20513;-75
2021/12/09 03:48:31;;;;;;;16.80;8.88;;;2.80;99.90;;;;;;4930228;29;20055;-75
2021/12/09 03:50:57;;;;;;;15.95;8.88;;;2.80;99.90;;;;;;4930233;28;20047;-74
2021/12/09 03:53:23;;;;;;;15.18;9.10;;;2.80;99.90;;;;;;4969962;28;20039;-75
2021/12/09 03:55:50;;;;;;;18.85;9.57;;;2.80;99.90;;;;;;4918834;29;20469;-74
2021/12/09 03:58:17;;;;;;;18.17;8.98;;;2.80;99.90;;;;;;4950457;28;20078;-75
2021/12/09 04:00:43;;;;;;;16.13;9.02;;;3.30;99.90;;;;;;4929886;29;20040;-74
2021/12/09 04:03:09;;;;;;;17.15;9.30;;;2.70;99.90;;;;;;4937464;28;20511;-75
2021/12/09 04:05:35;;;;;;;20.75;9.98;;;2.80;99.90;;;;;;4937727;29;20047;-75
2021/12/09 04:08:03;;;;;;;16.30;9.07;;;2.70;99.90;;;;;;4930573;29;20049;-74
2021/12/09 04:10:29;;;;;;;12.48;9.25;;;2.80;99.90;;;;;;4921923;29;20050;-75
2021/12/09 04:12:56;;;;;;;20.55;9.02;;;2.70;99.90;;;;;;4966671;28;20126;-74
2021/12/09 04:15:22;;;;;;;19.13;9.23;;;2.70;99.90;;;;;;4935145;29;20055;-74
2021/12/09 04:17:48;;;;;;;20.02;9.73;;;2.70;99.90;;;;;;4918463;29;20122;-74
2021/12/09 04:20:14;;;;;;;16.38;9.32;;;2.70;99.90;;;;;;4918561;29;20075;-74
2021/12/09 04:22:41;;;;;;;19.35;10.10;;;2.80;99.90;;;;;;4918638;29;20534;-75
2021/12/09 04:25:07;;;;;;;18.00;8.98;;;2.70;99.90;;;;;;4932460;29;20039;-75
2021/12/09 04:27:33;;;;;;;16.52;9.05;;;2.70;99.90;;;;;;4936654;29;20538;-75
2021/12/09 04:29:59;;;;;;;17.42;8.98;;;2.70;99.90;;;;;;4934195;29;20187;-75
2021/12/09 04:32:25;;;;;;;17.05;9.30;;;2.70;99.90;;;;;;4919287;29;20067;-74
2021/12/09 04:34:53;;;;;;;15.85;8.98;;;2.70;99.90;;;;;;4918732;29;20048;-75
2021/12/09 04:37:20;;;;;;;16.38;9.25;;;2.70;99.90;;;;;;4919359;29;20122;-75
2021/12/09 04:39:45;;;;;;;20.52;9.65;;;2.70;99.90;;;;;;4918547;29;20048;-76
2021/12/09 04:42:11;;;;;;;21.25;10.38;;;2.90;99.90;;;;;;4932261;29;20381;-76
2021/12/09 04:44:37;;;;;;;25.38;10.07;;;2.80;99.90;;;;;;4904682;29;20035;-76
2021/12/09 04:47:04;;;;;;;14.52;9.50;;;2.70;99.90;;;;;;4934100;29;20063;-75
2021/12/09 04:49:29;;;;;;;17.55;9.32;;;2.80;99.90;;;;;;4935744;29;20047;-75
2021/12/09 04:51:57;;;;;;;21.77;11.10;;;2.70;99.90;;;;;;4933943;29;20103;-76
2021/12/09 04:54:24;;;;;;;18.75;10.60;;;3.10;99.90;;;;;;4919301;29;20057;-75
2021/12/09 04:56:49;;;;;;;18.77;9.93;;;2.60;99.90;;;;;;4917922;29;20052;-74
2021/12/09 04:59:15;;;;;;;17.60;10.00;;;2.70;99.90;;;;;;4919176;28;20401;-75
2021/12/09 05:01:48;;;;;;;14.73;9.52;;;2.70;99.90;;;;;;4940936;29;20050;-75
2021/12/09 05:04:15;;;;;;;17.95;10.10;;;2.60;99.90;;;;;;4958318;28;20114;-75
2021/12/09 05:06:40;;;;;;;23.70;10.23;;;2.60;99.90;;;;;;4969911;28;20075;-75
2021/12/09 05:09:10;;;;;;;17.90;10.60;;;2.60;99.90;;;;;;4953409;29;20419;-75
2021/12/09 05:14:04;;;;;;;18.23;10.70;;;2.50;99.90;;;;;;4919785;29;20054;-75
2021/12/09 05:16:30;;;;;;;19.33;9.43;;;2.60;99.90;;;;;;4939252;29;20040;-75
2021/12/09 05:18:59;;;;;;;20.60;9.73;;;2.70;99.90;;;;;;4921662;29;20055;-74
2021/12/09 05:21:28;;;;;;;16.50;9.35;;;2.50;99.90;;;;;;4954663;29;20079;-75
2021/12/09 05:23:58;;;;;;;19.73;9.90;;;2.50;99.90;;;;;;4957968;28;20404;-75
2021/12/09 05:26:28;;;;;;;22.35;9.68;;;2.40;99.90;;;;;;4954542;28;20036;-75
2021/12/09 05:28:56;;;;;;;19.75;10.23;;;3.10;99.90;;;;;;4936688;29;20110;-75
2021/12/09 05:34:09;;;;;;;14.82;9.48;;;2.30;99.90;;;;;;4969770;28;20090;-74
2021/12/09 05:36:35;;;;;;;23.02;10.25;;;2.20;99.90;;;;;;4955492;29;20054;-74
2021/12/09 05:39:02;;;;;;;19.42;10.18;;;2.10;99.90;;;;;;4921457;29;20051;-74
2021/12/09 05:41:28;;;;;;;17.40;9.55;;;2.20;99.90;;;;;;4938383;29;20043;-74
2021/12/09 05:43:54;;;;;;;17.90;9.93;;;2.20;99.90;;;;;;4934962;29;20035;-74
2021/12/09 05:46:22;;;;;;;16.58;10.07;;;2.20;99.90;;;;;;4935988;29;20062;-74
2021/12/09 05:48:49;;;;;;;18.58;10.35;;;2.20;99.90;;;;;;4937255;29;20040;-74
2021/12/09 05:51:19;;;;;;;19.52;10.25;;;2.20;99.90;;;;;;4936771;29;20039;-74
2021/12/09 05:53:45;;;;;;;21.10;11.07;;;2.20;99.90;;;;;;4936996;29;20052;-74
2021/12/09 05:56:10;;;;;;;20.70;10.75;;;2.20;99.90;;;;;;4903859;29;20212;-74
2021/12/09 05:58:36;;;;;;;20.10;10.88;;;2.20;99.90;;;;;;4939117;29;20094;-74
2021/12/09 06:01:02;;;;;;;17.23;10.30;;;2.20;99.90;;;;;;4957256;29;20046;-74
2021/12/09 06:03:27;;;;;;;19.45;9.75;;;2.10;99.90;;;;;;4937939;29;20043;-74
2021/12/09 06:05:53;;;;;;;25.88;10.80;;;1.90;99.90;;;;;;4920724;29;20399;-74
2021/12/09 06:08:19;;;;;;;22.73;11.23;;;3.00;99.90;;;;;;4937219;29;20043;-74
2021/12/09 06:10:46;;;;;;;19.35;11.55;;;2.20;99.90;;;;;;4936014;29;20488;-74
2021/12/09 06:13:12;;;;;;;19.10;10.75;;;2.30;99.90;;;;;;4918894;29;20035;-74
2021/12/09 06:15:38;;;;;;;17.95;9.98;;;2.60;99.90;;;;;;4956544;29;20051;-74
2021/12/09 06:18:04;;;;;;;18.17;10.48;;;2.20;99.90;;;;;;4956754;28;20379;-74
2021/12/09 06:20:30;;;;;;;18.38;10.23;;;2.30;99.90;;;;;;4937700;28;20040;-74
2021/12/09 06:22:56;;;;;;;22.98;11.25;;;2.30;99.90;;;;;;4956710;29;20504;-74
2021/12/09 06:25:22;;;;;;;24.30;11.32;;;2.20;99.90;;;;;;4969056;28;20044;-74
2021/12/09 06:27:49;;;;;;;20.83;10.70;;;2.20;99.90;;;;;;4919193;29;20079;-73
2021/12/09 06:30:18;;;;;;;19.17;10.80;;;2.70;99.90;;;;;;4935916;29;20122;-74
2021/12/09 06:32:45;;;;;;;19.90;10.50;;;2.20;99.90;;;;;;4920441;29;20075;-74
2021/12/09 06:35:11;;;;;;;22.75;11.23;;;2.20;99.90;;;;;;4968257;28;20048;-74
2021/12/09 06:37:40;;;;;;;20.85;11.27;;;2.20;99.90;;;;;;4906959;29;20039;-74
2021/12/09 06:40:08;;;;;;;20.98;10.68;;;2.20;99.90;;;;;;4936293;29;20051;-74
2021/12/09 06:42:34;;;;;;;23.80;11.32;;;2.10;99.90;;;;;;4938283;29;20369;-74
2021/12/09 06:45:00;;;;;;;19.48;10.77;;;2.10;99.90;;;;;;4919007;29;20039;-74
2021/12/09 06:47:25;;;;;;;21.75;11.63;;;2.10;99.90;;;;;;4937628;29;20131;-74
2021/12/09 06:49:52;;;;;;;20.88;11.48;;;2.10;99.90;;;;;;4936198;29;20086;-74
2021/12/09 06:52:18;;;;;;;20.10;10.95;;;2.10;99.90;;;;;;4936033;29;20420;-74
2021/12/09 06:54:44;;;;;;;24.58;11.18;;;2.10;99.90;;;;;;4920089;29;20040;-74
2021/12/09 06:57:10;;;;;;;23.55;11.50;;;2.10;99.90;;;;;;4903779;29;20044;-74
2021/12/09 06:59:36;;;;;;;21.52;11.68;;;2.60;99.90;;;;;;4953968;28;20106;-74
2021/12/09 07:02:02;;;;;;;19.73;11.20;;;2.20;99.90;;;;;;4918233;29;20098;-74
2021/12/09 07:04:28;;;;;;;25.13;11.10;;;2.10;99.90;;;;;;4936825;29;20121;-73
2021/12/09 07:06:53;;;;;;;22.13;10.85;;;2.10;99.90;;;;;;4922557;29;20151;-73
2021/12/09 07:09:19;;;;;;;18.85;11.73;;;2.10;99.90;;;;;;4935518;29;20031;-73
2021/12/09 07:11:51;;;;;;;26.75;12.38;;;2.10;99.90;;;;;;4931501;29;20552;-78
2021/12/09 07:14:18;;;;;;;19.95;11.95;;;2.40;99.90;;;;;;4901067;29;20085;-76
2021/12/09 07:16:43;;;;;;;18.05;10.32;;;2.10;99.90;;;;;;4934006;29;20039;-75
2021/12/09 07:19:09;;;;;;;19.85;11.73;;;2.10;99.90;;;;;;4901912;29;20043;-78
2021/12/09 07:21:35;;;;;;;23.25;10.93;;;2.10;99.90;;;;;;4921280;29;20059;-79
2021/12/09 07:24:01;;;;;;;19.90;11.07;;;2.10;99.90;;;;;;4969028;28;20051;-79
2021/12/09 07:26:32;;;;;;;18.80;11.70;;;2.10;99.90;;;;;;4942465;29;20175;-78
2021/12/09 07:29:03;;;;;;;21.33;11.63;;;2.50;99.90;;;;;;4946061;29;20043;-79
2021/12/09 07:31:29;;;;;;;23.23;12.10;;;2.10;99.90;;;;;;4935227;29;20060;-79
2021/12/09 07:33:58;;;;;;;22.08;12.57;;;2.10;99.90;;;;;;4929745;29;20119;-76
2021/12/09 07:36:24;;;;;;;26.67;12.93;;;2.00;99.90;;;;;;4936434;29;20043;-78
2021/12/09 07:38:50;;;;;;;23.88;12.43;;;2.10;99.90;;;;;;4924477;29;20048;-78
2021/12/09 07:41:16;;;;;;;22.92;11.27;;;2.00;99.90;;;;;;4937052;29;20069;-74
2021/12/09 07:43:43;;;;;;;22.23;11.75;;;2.20;99.90;;;;;;4935199;29;20050;-74
2021/12/09 07:46:09;;;;;;;22.48;11.90;;;2.00;99.90;;;;;;4919035;29;20135;-75
2021/12/09 07:48:35;;;;;;;20.58;11.07;;;2.00;99.90;;;;;;4921250;29;20048;-75
2021/12/09 07:51:01;;;;;;;22.65;10.80;;;2.00;99.90;;;;;;4904224;29;20050;-75
2021/12/09 07:53:27;;;;;;;21.08;10.48;;;2.00;99.90;;;;;;4954675;28;20070;-74
2021/12/09 07:55:54;;;;;;;23.00;11.55;;;2.20;99.90;;;;;;4954920;28;20043;-75
2021/12/09 07:58:20;;;;;;;24.95;11.82;;;2.10;99.90;;;;;;4934835;29;20051;-81
2021/12/09 08:00:46;;;;;;;21.60;11.50;;;2.10;99.90;;;;;;4913493;29;20066;-75
2021/12/09 08:03:13;;;;;;;18.60;11.55;;;2.10;99.90;;;;;;4940808;29;20487;-76
2021/12/09 08:05:41;;;;;;;22.02;11.45;;;2.20;99.90;;;;;;4950703;29;20518;-75
2021/12/09 08:08:08;;;;;;;20.25;10.77;;;2.10;99.90;;;;;;4929058;29;20063;-75
2021/12/09 08:10:34;;;;;;;23.90;10.52;;;2.10;99.90;;;;;;4938369;28;20036;-75
2021/12/09 08:13:01;;;;;;;21.75;10.73;;;2.10;99.90;;;;;;4930977;29;20531;-75
2021/12/09 08:15:35;;;;;;;23.40;11.20;;;2.10;99.90;;;;;;4931836;29;20396;-75
2021/12/09 08:18:13;;;;;;;19.08;10.90;;;2.10;99.90;;;;;;4928565;29;20051;-75
2021/12/09 08:20:39;;;;;;;24.50;12.45;;;2.10;99.90;;;;;;4948859;28;20126;-75
2021/12/09 08:23:05;;;;;;;19.60;10.95;;;2.10;99.90;;;;;;4931113;29;20469;-75
2021/12/09 08:25:31;;;;;;;24.52;11.07;;;2.10;99.90;;;;;;4932556;29;20039;-75
2021/12/09 08:27:57;;;;;;;23.63;11.13;;;2.10;99.90;;;;;;4950814;29;20066;-75
2021/12/09 08:30:25;;;;;;;24.42;10.05;;;2.10;99.90;;;;;;4931589;29;20448;-75
2021/12/09 08:32:54;;;;;;;21.13;10.48;;;2.10;99.90;;;;;;4948641;28;20134;-75
2021/12/09 08:35:21;;;;;;;20.85;10.63;;;2.10;99.90;;;;;;4914997;29;20082;-75
2021/12/09 08:37:51;;;;;;;19.48;10.63;;;2.10;99.90;;;;;;4950749;28;20399;-74
2021/12/09 08:40:20;;;;;;;20.25;9.73;;;2.10;99.90;;;;;;4950654;29;20090;-75
2021/12/09 08:42:49;;;;;;;21.58;11.10;;;2.20;99.90;;;;;;4950875;29;20109;-74
2021/12/09 08:45:16;;;;;;;26.23;10.50;;;2.20;99.90;;;;;;4931474;29;20035;-75
2021/12/09 08:47:43;;;;;;;24.05;10.15;;;2.20;99.90;;;;;;4917221;29;20503;-74
2021/12/09 08:50:11;;;;;;;24.67;10.65;;;2.30;99.90;;;;;;4946980;29;20156;-75
2021/12/09 08:52:37;;;;;;;21.77;9.93;;;2.20;99.90;;;;;;4949330;29;20050;-75
2021/12/09 08:55:04;;;;;;;16.40;9.75;;;2.40;99.90;;;;;;4950533;28;20047;-75
2021/12/09 08:57:32;;;;;;;17.73;10.55;;;2.30;99.90;;;;;;4915361;29;20048;-75
2021/12/09 08:59:58;;;;;;;23.42;10.75;;;2.30;99.90;;;;;;4911560;29;20383;-76
2021/12/09 09:02:25;;;;;;;23.00;10.27;;;2.30;99.90;;;;;;4932339;29;20074;-75
2021/12/09 09:04:50;;;;;;;21.25;10.18;;;2.30;99.90;;;;;;4935354;29;20043;-75
2021/12/09 09:07:16;;;;;;;20.73;10.65;;;2.30;99.90;;;;;;4954596;28;20392;-75
2021/12/09 09:09:42;;;;;;;19.85;11.02;;;2.40;99.90;;;;;;4958678;28;20050;-75
2021/12/09 09:12:10;;;;;;;19.35;9.60;;;2.40;99.90;;;;;;4953599;28;20043;-75
2021/12/09 09:14:36;;;;;;;19.33;10.05;;;2.40;99.90;;;;;;4935604;29;20051;-75
2021/12/09 09:17:03;;;;;;;21.27;10.02;;;2.40;99.90;;;;;;4953681;28;20047;-75
2021/12/09 09:19:29;;;;;;;18.02;9.90;;;2.40;99.90;;;;;;4918937;29;20392;-75
2021/12/09 09:21:56;;;;;;;23.38;9.68;;;2.50;99.90;;;;;;4930542;29;20044;-75
2021/12/09 09:24:21;;;;;;;21.60;10.20;;;2.50;99.90;;;;;;4933094;29;20102;-75
2021/12/09 09:26:47;;;;;;;20.98;9.65;;;2.50;99.90;;;;;;4953318;28;20043;-75
2021/12/09 09:29:13;;;;;;;23.88;10.02;;;2.50;99.90;;;;;;4932875;29;20135;-75
2021/12/09 09:31:40;;;;;;;20.17;9.85;;;3.00;99.90;;;;;;4913328;29;20415;-75
2021/12/09 09:34:07;;;;;;;21.85;10.50;;;2.70;99.90;;;;;;4946659;29;20039;-75
2021/12/09 09:36:33;;;;;;;23.10;9.93;;;2.60;99.90;;;;;;4953120;29;20134;-75
2021/12/09 09:39:16;;;;;;;17.05;9.48;;;2.70;99.90;;;;;;4935441;29;20131;-75
2021/12/09 09:41:42;;;;;;;19.90;9.60;;;2.70;99.90;;;;;;4953215;28;20039;-75
2021/12/09 09:44:15;;;;;;;14.52;8.30;;;3.10;99.90;;;;;;4932036;29;20088;-75
2021/12/09 09:46:42;;;;;;;21.88;9.68;;;2.90;99.90;;;;;;4953106;29;20039;-75
2021/12/09 09:49:08;;;;;;;22.05;9.45;;;2.80;99.90;;;;;;4939882;29;20402;-75
2021/12/09 09:51:37;;;;;;;21.92;9.00;;;3.20;99.90;;;;;;4955295;28;20114;-75
2021/12/09 09:54:04;;;;;;;25.65;9.73;;;2.80;99.90;;;;;;4956282;29;20071;-75
2021/12/09 09:56:34;;;;;;;19.65;8.35;;;2.80;99.90;;;;;;4951043;29;20043;-75
2021/12/09 09:59:06;;;;;;;15.52;8.73;;;2.90;99.90;;;;;;4919903;29;20156;-78
2021/12/09 10:01:35;;;;;;;23.73;9.15;;;2.90;99.90;;;;;;4935896;28;20055;-79
2021/12/09 10:04:11;;;;;;;18.83;8.77;;;3.00;99.90;;;;;;4937787;29;20056;-78
2021/12/09 10:06:40;;;;;;;19.23;8.45;;;3.00;99.90;;;;;;4935202;29;20051;-78
2021/12/09 10:09:07;;;;;;;20.30;8.40;;;3.00;99.90;;;;;;4917230;29;20125;-79
2021/12/09 10:11:33;;;;;;;19.58;8.90;;;3.10;99.90;;;;;;4933586;29;20110;-78
2021/12/09 10:14:16;;;;;;;20.98;7.90;;;3.10;99.90;;;;;;4932836;29;20674;-78
2021/12/09 10:16:45;;;;;;;26.88;8.52;;;3.10;99.90;;;;;;4932890;29;20051;-78
2021/12/09 10:19:20;;;;;;;20.77;8.90;;;3.20;99.90;;;;;;4949132;28;20043;-78
2021/12/09 10:21:47;;;;;;;18.65;8.63;;;3.30;99.90;;;;;;4925848;29;20131;-78
2021/12/09 10:24:14;;;;;;;20.08;8.30;;;3.20;99.90;;;;;;4932290;29;20051;-79
2021/12/09 10:26:48;;;;;;;21.48;8.95;;;3.70;99.90;;;;;;4932833;29;20122;-79
2021/12/09 10:29:27;;;;;;;18.13;8.90;;;3.30;99.90;;;;;;4947368;28;20062;-78
2021/12/09 10:31:58;;;;;;;18.77;8.20;;;3.40;99.90;;;;;;4932679;29;20381;-79
2021/12/09 10:34:36;;;;;;;19.08;8.02;;;3.40;99.90;;;;;;4923734;29;20056;-79
2021/12/09 10:37:07;;;;;;;18.48;7.57;;;3.80;99.90;;;;;;4940294;29;20051;-78
2021/12/09 10:39:43;;;;;;;18.05;8.50;;;3.40;99.90;;;;;;4918865;29;20079;-77
2021/12/09 10:42:11;;;;;;;;;;;3.50;99.90;;;;;;4916151;29;20036;-78
2021/12/09 10:44:59;;;;;;;19.95;7.50;;;3.50;99.90;;;;;;4950344;29;20290;-78
2021/12/09 10:48:04;;;;;;;23.38;7.95;;;3.50;99.90;;;;;;4917720;29;20138;-77
2021/12/09 10:50:39;;;;;;;20.65;7.68;;;3.60;99.90;;;;;;4918698;29;20070;-77
2021/12/09 10:53:47;;;;;;;20.42;8.40;;;3.70;99.90;;;;;;4932185;29;20052;-78
2021/12/09 10:56:10;;;;;;;20.48;8.25;;;3.90;99.90;;;;;;4925569;29;20053;-78
2021/12/09 10:58:38;;;;;;;16.83;7.68;;;3.80;99.90;;;;;;4919843;29;20066;-78
2021/12/09 11:01:14;;;;;;;21.25;8.48;;;3.80;99.90;;;;;;4931718;29;20369;-78
2021/12/09 11:03:42;;;;;;;21.05;8.25;;;3.80;99.90;;;;;;4932615;29;20124;-78
2021/12/09 11:06:10;;;;;;;16.10;8.40;;;3.90;99.90;;;;;;4931372;29;20056;-76
2021/12/09 11:08:46;;;;;;;18.02;7.80;;;3.90;99.90;;;;;;4922298;29;20448;-77
2021/12/09 11:11:15;;;;;;;16.50;8.45;;;3.90;99.90;;;;;;4934696;29;20043;-76
2021/12/09 11:13:55;;;;;;;19.45;8.80;;;4.40;99.90;;;;;;4914864;29;20399;-76
2021/12/09 11:16:30;;;;;;;22.95;8.82;;;4.00;99.90;;;;;;4938340;29;20088;-76
2021/12/09 11:19:07;;;;;;;18.40;9.18;;;4.00;99.90;;;;;;4955395;28;20050;-77
2021/12/09 11:21:40;;;;;;;24.02;9.70;;;4.00;99.90;;;;;;4918040;29;20123;-76
2021/12/09 11:24:18;;;;;;;20.65;9.02;;;4.00;99.90;;;;;;4900437;29;20099;-76
2021/12/09 11:26:56;;;;;;;24.50;8.32;;;4.00;99.90;;;;;;4931872;29;20044;-78
2021/12/09 11:29:28;;;;;;;16.38;8.65;;;4.00;99.90;;;;;;4919851;29;20131;-78
2021/12/09 11:32:12;;;;;;;20.25;9.25;;;4.00;99.90;;;;;;4919217;29;20052;-78
2021/12/09 11:34:55;;;;;;;20.83;9.50;;;4.00;99.90;;;;;;4921947;29;20051;-78
2021/12/09 11:40:11;;;;;;;22.58;8.65;;;4.00;99.90;;;;;;4966522;28;20063;-78
2021/12/09 11:45:11;;;;;;;18.50;9.30;;;4.00;99.90;;;;;;4934576;29;20420;-78
2021/12/09 11:47:42;;;;;;;18.10;9.10;;;4.20;99.90;;;;;;4953811;28;20403;-78
2021/12/09 11:50:16;;;;;;;28.08;9.82;;;3.90;99.90;;;;;;4922552;29;20082;-78
2021/12/09 11:52:43;;;;;;;26.00;10.40;;;4.00;99.90;;;;;;4930061;29;20050;-78
2021/12/09 11:55:13;;;;;;;27.92;10.52;;;3.90;99.90;;;;;;4946241;29;20123;-78
2021/12/09 11:57:43;;;;;;;23.15;10.35;;;3.90;99.90;;;;;;4918445;29;20074;-78
2021/12/09 12:07:18;;;;;;;23.75;10.88;;;4.00;99.90;;;;;;4937759;28;20047;-78
2021/12/09 12:13:05;;;;;;;27.13;11.88;;;4.00;99.90;;;;;;4952481;29;20047;-75
2021/12/09 12:20:59;;;;;;;24.83;12.25;;;3.90;99.90;;;;;;4952150;29;20044;-72
2021/12/09 12:40:40;;;;;;;28.40;11.00;;;3.90;99.90;;;;;;4912084;29;20071;-72
2021/12/09 12:45:48;;;;;;;28.52;11.85;;;4.10;99.90;;;;;;4948059;29;20107;-72
2021/12/09 12:52:04;;;;;;;26.80;11.30;;;4.30;99.90;;;;;;4943884;28;20074;-72
2021/12/09 12:54:14;;;;;;;18.08;9.93;;;4.10;99.90;;;;;;4920308;29;20486;-72
2021/12/09 12:56:57;;;;;;;15.48;9.68;;;4.10;99.90;;;;;;4938567;29;20059;-72
2021/12/09 12:59:29;;;;;;;20.10;10.60;;;4.30;99.90;;;;;;4930566;29;20048;-72
2021/12/09 13:02:10;;;;;;;22.98;10.63;;;4.20;99.90;;;;;;4929711;29;20043;-72
2021/12/09 13:07:25;;;;;;;22.50;10.60;;;4.20;99.90;;;;;;4936086;29;20047;-72
2021/12/09 13:10:04;;;;;;;21.08;10.65;;;4.20;99.90;;;;;;4931082;29;20043;-72
2021/12/09 13:12:45;;;;;;;15.55;10.05;;;4.20;99.90;;;;;;4950631;29;20052;-76
2021/12/09 13:15:23;;;;;;;20.42;11.02;;;4.50;99.90;;;;;;4914347;29;20496;-78
2021/12/09 13:18:00;;;;;;;22.73;11.15;;;4.30;99.90;;;;;;4917612;29;20106;-76
2021/12/09 13:20:32;;;;;;;24.10;11.18;;;4.30;99.90;;;;;;4918109;29;20098;-77
2021/12/09 13:23:26;;;;;;;21.58;11.90;;;4.30;99.90;;;;;;4917184;29;20165;-77
2021/12/09 13:26:18;;;;;;;23.77;11.25;;;4.40;99.90;;;;;;4921303;29;20058;-79
2021/12/09 13:29:23;;;;;;;19.85;10.75;;;4.90;99.90;;;;;;4936679;29;20046;-78
2021/12/09 13:31:58;;;;;;;21.15;11.38;;;4.40;99.90;;;;;;4935907;29;20059;-75
2021/12/09 13:34:28;;;;;;;19.98;11.60;;;4.40;99.90;;;;;;4921034;29;20058;-75
2021/12/09 13:48:27;;;;;;;24.20;13.02;;;4.80;99.90;;;;;;4923205;29;20043;-75
2021/12/09 13:51:11;;;;;;;23.88;11.82;;;4.40;99.90;;;;;;4939487;28;20085;-77
2021/12/09 13:56:21;;;;;;;28.02;12.02;;;4.40;99.90;;;;;;4949384;29;20058;-76
2021/12/09 13:58:48;;;;;;;24.02;12.30;;;4.60;99.90;;;;;;4952192;28;20121;-75